Date,TemperatureHighF,TemperatureAvgF,TemperatureLowF,DewpointHighF,DewpointAvgF,DewpointLowF,HumidityHigh,HumidityAvg,HumidityLow,PressureMaxIn,PressureMinIn,WindSpeedMaxMPH,WindSpeedAvgMPH,GustSpeedMaxMPH,PrecipitationSumIn
2013-5-1,41,30,21,-100,-100,-100,0,0,100,0.00,40.00,0,-999,0,0.02
2013-5-2,51,32,14,-100,-100,-100,0,0,100,0.00,40.00,0,-999,0,0.01
2013-5-3,55,41,26,-100,-100,-100,0,0,100,0.00,40.00,0,-999,0,0.01
2013-5-4,52,41,34,-100,-100,-100,0,0,100,0.00,40.00,0,-999,0,0.00
2013-5-5,54,40,29,-100,-100,-100,0,0,100,0.00,40.00,0,-999,0,0.01
2013-5-6,61,44,31,-100,-100,-100,0,0,100,0.00,40.00,0,-999,0,0.00
2013-5-7,65,45,31,-100,-100,-100,0,0,100,0.00,40.00,0,-999,0,0.00
2013-5-8,63,46,32,-100,-100,-100,0,0,100,0.00,40.00,0,-999,0,0.00
2013-5-9,64,45,33,-100,-100,-100,0,0,100,0.00,40.00,0,-999,0,0.00
2013-5-10,66,45,32,-100,-100,-100,0,0,100,0.00,40.00,0,-999,0,0.00
2013-5-11,65,46,33,-100,-100,-100,0,0,100,0.00,40.00,0,-999,0,0.01
2013-5-12,72,52,35,-100,-100,-100,0,0,100,0.00,40.00,0,-999,0,0.00
2013-5-13,74,53,38,-100,-100,-100,0,0,100,0.00,40.00,0,-999,0,0.01
2013-5-14,70,53,35,-100,-100,-100,0,0,100,0.00,40.00,0,-999,0,0.00
2013-5-15,68,51,35,-100,-100,-100,0,0,100,0.00,40.00,0,-999,0,0.01
2013-5-16,56,46,38,-100,-100,-100,0,0,100,0.00,40.00,0,-999,0,0.01
2013-5-17,50,44,38,-100,-100,-100,0,0,100,0.00,40.00,0,-999,0,0.03
2013-5-18,45,41,37,-100,-100,-100,0,0,100,0.00,40.00,0,-999,0,0.02
2013-5-19,46,41,37,-100,-100,-100,0,0,100,0.00,40.00,0,-999,0,0.01
2013-5-20,58,43,32,-100,-100,-100,0,0,100,0.00,40.00,0,-999,0,0.01
2013-5-21,62,47,32,-100,-100,-100,0,0,100,0.00,40.00,0,-999,0,0.00
2013-5-22,63,49,36,-100,-100,-100,0,0,100,0.00,40.00,0,-999,0,0.01
2013-5-23,63,47,36,-100,-100,-100,0,0,100,0.00,40.00,0,-999,0,0.01
2013-5-24,59,44,30,-100,-100,-100,0,0,100,0.00,40.00,0,-999,0,0.01
2013-5-25,68,47,31,-100,-100,-100,0,0,100,0.00,40.00,0,-999,0,0.01
2013-5-26,67,48,35,-100,-100,-100,0,0,100,0.00,40.00,0,-999,0,0.01
2013-5-27,57,46,38,-100,-100,-100,0,0,100,0.00,40.00,0,-999,0,0.01
2013-5-28,53,43,38,-100,-100,-100,0,0,100,0.00,40.00,0,-999,0,0.02
2013-5-29,50,43,40,-100,-100,-100,0,0,100,0.00,40.00,0,-999,0,0.01
2013-5-30,48,41,37,-100,-100,-100,0,0,100,0.00,40.00,0,-999,0,0.01
2013-5-31,52,40,31,-100,-100,-100,0,0,100,0.00,40.00,0,-999,0,0.01